sensor_id;sensor_type;location;lat;lon;timestamp;pressure;altitude;pressure_sealevel;temperature;humidity
73600;BME280;61877;48.246;9.220;2023-04-08T00:00:56;94264.00;;;5.16;98.17
73600;BME280;61877;48.246;9.220;2023-04-08T00:03:21;94270.91;;;5.17;98.00
73600;BME280;61877;48.246;9.220;2023-04-08T00:05:47;94269.03;;;5.17;97.86
73600;BME280;61877;48.246;9.220;2023-04-08T00:08:13;94268.56;;;5.15;97.71
73600;BME280;61877;48.246;9.220;2023-04-08T00:10:39;94274.66;;;5.16;97.54
73600;BME280;61877;48.246;9.220;2023-04-08T00:13:04;94272.97;;;5.20;97.42
73600;BME280;61877;48.246;9.220;2023-04-08T00:15:30;94279.38;;;5.19;97.43
73600;BME280;61877;48.246;9.220;2023-04-08T00:17:55;94277.81;;;5.18;97.33
73600;BME280;61877;48.246;9.220;2023-04-08T00:20:21;94274.66;;;5.16;97.55
73600;BME280;61877;48.246;9.220;2023-04-08T00:22:47;94277.81;;;5.18;97.89
73600;BME280;61877;48.246;9.220;2023-04-08T00:25:14;94282.53;;;5.21;98.06
73600;BME280;61877;48.246;9.220;2023-04-08T00:27:39;94280.16;;;5.19;97.62
73600;BME280;61877;48.246;9.220;2023-04-08T00:30:06;94283.00;;;5.23;97.85
73600;BME280;61877;48.246;9.220;2023-04-08T00:32:31;94279.25;;;5.24;97.96
73600;BME280;61877;48.246;9.220;2023-04-08T00:34:56;94284.88;;;5.22;97.81
73600;BME280;61877;48.246;9.220;2023-04-08T00:37:22;94284.56;;;5.24;98.08
73600;BME280;61877;48.246;9.220;2023-04-08T00:39:47;94286.47;;;5.23;98.00
73600;BME280;61877;48.246;9.220;2023-04-08T00:42:14;94286.97;;;5.25;98.32
73600;BME280;61877;48.246;9.220;2023-04-08T00:44:39;94288.22;;;5.28;98.62
73600;BME280;61877;48.246;9.220;2023-04-08T00:47:05;94276.03;;;5.27;98.44
73600;BME280;61877;48.246;9.220;2023-04-08T00:49:30;94286.66;;;5.27;98.17
73600;BME280;61877;48.246;9.220;2023-04-08T00:51:57;94281.16;;;5.23;98.81
73600;BME280;61877;48.246;9.220;2023-04-08T00:54:23;94280.84;;;5.25;98.88
73600;BME280;61877;48.246;9.220;2023-04-08T00:56:49;94286.34;;;5.28;99.15
73600;BME280;61877;48.246;9.220;2023-04-08T00:59:16;94283.69;;;5.28;98.72
73600;BME280;61877;48.246;9.220;2023-04-08T01:01:43;94282.31;;;5.31;98.96
73600;BME280;61877;48.246;9.220;2023-04-08T01:04:24;94280.44;;;5.32;98.71
73600;BME280;61877;48.246;9.220;2023-04-08T01:06:56;94284.34;;;5.34;98.35
73600;BME280;61877;48.246;9.220;2023-04-08T01:09:27;94279.94;;;5.29;98.15
73600;BME280;61877;48.246;9.220;2023-04-08T01:11:55;94282.31;;;5.31;98.27
73600;BME280;61877;48.246;9.220;2023-04-08T01:14:25;94286.06;;;5.30;98.42
73600;BME280;61877;48.246;9.220;2023-04-08T01:16:53;94286.84;;;5.31;98.37
73600;BME280;61877;48.246;9.220;2023-04-08T01:19:24;94285.44;;;5.33;98.53
73600;BME280;61877;48.246;9.220;2023-04-08T01:21:51;94281.22;;;5.32;98.26
73600;BME280;61877;48.246;9.220;2023-04-08T01:24:22;94282.31;;;5.31;98.01
73600;BME280;61877;48.246;9.220;2023-04-08T01:26:51;94282.50;;;5.35;98.72
73600;BME280;61877;48.246;9.220;2023-04-08T01:29:19;94280.81;;;5.39;98.82
73600;BME280;61877;48.246;9.220;2023-04-08T01:31:45;94280.50;;;5.40;98.42
73600;BME280;61877;48.246;9.220;2023-04-08T01:34:12;94276.25;;;5.39;98.76
73600;BME280;61877;48.246;9.220;2023-04-08T01:36:39;94276.47;;;5.43;98.69
73600;BME280;61877;48.246;9.220;2023-04-08T01:39:06;94276.53;;;5.51;98.33
73600;BME280;61877;48.246;9.220;2023-04-08T01:41:33;94274.84;;;5.55;96.94
73600;BME280;61877;48.246;9.220;2023-04-08T01:44:02;94271.16;;;5.65;95.84
73600;BME280;61877;48.246;9.220;2023-04-08T01:46:28;94257.38;;;5.63;95.50
73600;BME280;61877;48.246;9.220;2023-04-08T01:48:56;94265.34;;;5.63;95.91
73600;BME280;61877;48.246;9.220;2023-04-08T01:51:24;94271.06;;;5.70;94.89
73600;BME280;61877;48.246;9.220;2023-04-08T01:53:50;94268.19;;;5.66;94.74
73600;BME280;61877;48.246;9.220;2023-04-08T01:56:15;94268.38;;;5.70;94.31
73600;BME280;61877;48.246;9.220;2023-04-08T01:58:43;94269.66;;;5.72;93.59
73600;BME280;61877;48.246;9.220;2023-04-08T02:01:16;94266.41;;;5.75;94.01
73600;BME280;61877;48.246;9.220;2023-04-08T02:03:43;94267.16;;;5.76;93.87
73600;BME280;61877;48.246;9.220;2023-04-08T02:06:09;94274.53;;;5.79;93.98
73600;BME280;61877;48.246;9.220;2023-04-08T02:08:34;94263.75;;;5.75;93.74
73600;BME280;61877;48.246;9.220;2023-04-08T02:11:00;94267.84;;;5.81;93.43
73600;BME280;61877;48.246;9.220;2023-04-08T02:13:25;94264.59;;;5.84;92.96
73600;BME280;61877;48.246;9.220;2023-04-08T02:15:56;94267.56;;;5.83;92.11
73600;BME280;61877;48.246;9.220;2023-04-08T02:18:26;94268.25;;;5.88;93.07
73600;BME280;61877;48.246;9.220;2023-04-08T02:20:55;94271.78;;;5.84;93.26
73600;BME280;61877;48.246;9.220;2023-04-08T02:23:24;94269.53;;;5.77;93.36
73600;BME280;61877;48.246;9.220;2023-04-08T02:25:54;94270.31;;;5.78;93.25
73600;BME280;61877;48.246;9.220;2023-04-08T02:28:20;94269.06;;;5.75;93.14
73600;BME280;61877;48.246;9.220;2023-04-08T02:30:49;94269.19;;;5.70;93.46
73600;BME280;61877;48.246;9.220;2023-04-08T02:33:17;94271.97;;;5.65;93.19
73600;BME280;61877;48.246;9.220;2023-04-08T02:35:45;94273.63;;;5.61;94.03
73600;BME280;61877;48.246;9.220;2023-04-08T02:38:11;94272.09;;;5.60;94.42
73600;BME280;61877;48.246;9.220;2023-04-08T02:40:37;94276.31;;;5.61;94.17
73600;BME280;61877;48.246;9.220;2023-04-08T02:43:02;94269.00;;;5.67;94.38
73600;BME280;61877;48.246;9.220;2023-04-08T02:45:30;94271.25;;;5.73;93.78
73600;BME280;61877;48.246;9.220;2023-04-08T02:47:56;94272.69;;;5.79;93.71
73600;BME280;61877;48.246;9.220;2023-04-08T02:50:21;94278.50;;;5.81;92.72
73600;BME280;61877;48.246;9.220;2023-04-08T02:52:48;94277.59;;;5.86;93.16
73600;BME280;61877;48.246;9.220;2023-04-08T02:55:14;94274.63;;;5.87;93.73
73600;BME280;61877;48.246;9.220;2023-04-08T02:57:41;94279.78;;;5.84;93.23
73600;BME280;61877;48.246;9.220;2023-04-08T03:00:08;94280.34;;;5.81;93.39
73600;BME280;61877;48.246;9.220;2023-04-08T03:02:33;94277.22;;;5.79;93.48
73600;BME280;61877;48.246;9.220;2023-04-08T03:04:59;94276.44;;;5.78;93.98
73600;BME280;61877;48.246;9.220;2023-04-08T03:07:24;94283.31;;;5.79;93.89
73600;BME280;61877;48.246;9.220;2023-04-08T03:09:52;94281.16;;;5.81;93.33
73600;BME280;61877;48.246;9.220;2023-04-08T03:12:18;94286.28;;;5.78;93.69
73600;BME280;61877;48.246;9.220;2023-04-08T03:14:43;94284.13;;;5.80;93.96
73600;BME280;61877;48.246;9.220;2023-04-08T03:17:08;94287.84;;;5.79;94.26
73600;BME280;61877;48.246;9.220;2023-04-08T03:19:34;94285.41;;;5.82;93.90
73600;BME280;61877;48.246;9.220;2023-04-08T03:21:59;94287.28;;;5.82;94.05
73600;BME280;61877;48.246;9.220;2023-04-08T03:24:24;94291.22;;;5.84;94.47
73600;BME280;61877;48.246;9.220;2023-04-08T03:26:51;94283.25;;;5.84;93.91
73600;BME280;61877;48.246;9.220;2023-04-08T03:29:17;94287.50;;;5.85;93.74
73600;BME280;61877;48.246;9.220;2023-04-08T03:31:42;94293.41;;;5.82;93.81
73600;BME280;61877;48.246;9.220;2023-04-08T03:34:09;94287.28;;;5.82;94.22
73600;BME280;61877;48.246;9.220;2023-04-08T03:36:34;94286.19;;;5.83;94.08
73600;BME280;61877;48.246;9.220;2023-04-08T03:39:00;94293.41;;;5.82;93.80
73600;BME280;61877;48.246;9.220;2023-04-08T03:41:25;94293.28;;;5.87;93.72
73600;BME280;61877;48.246;9.220;2023-04-08T03:43:52;94289.66;;;5.83;92.37
73600;BME280;61877;48.246;9.220;2023-04-08T03:46:17;94292.31;;;5.83;92.65
73600;BME280;61877;48.246;9.220;2023-04-08T03:48:42;94290.25;;;5.80;92.86
73600;BME280;61877;48.246;9.220;2023-04-08T03:51:08;94294.47;;;5.81;92.88
73600;BME280;61877;48.246;9.220;2023-04-08T03:53:33;94291.81;;;5.81;92.86
73600;BME280;61877;48.246;9.220;2023-04-08T03:55:59;94294.19;;;5.83;92.64
73600;BME280;61877;48.246;9.220;2023-04-08T03:58:24;94293.19;;;5.79;93.18
73600;BME280;61877;48.246;9.220;2023-04-08T04:00:51;94291.63;;;5.78;93.08
73600;BME280;61877;48.246;9.220;2023-04-08T04:03:16;94299.78;;;5.81;93.29
73600;BME280;61877;48.246;9.220;2023-04-08T04:05:41;94300.88;;;5.80;92.53
73600;BME280;61877;48.246;9.220;2023-04-08T04:08:07;94302.66;;;5.85;92.53
73600;BME280;61877;48.246;9.220;2023-04-08T04:10:32;94305.72;;;5.78;92.06
73600;BME280;61877;48.246;9.220;2023-04-08T04:12:57;94306.34;;;5.75;90.97
73600;BME280;61877;48.246;9.220;2023-04-08T04:15:23;94303.47;;;5.85;91.49
73600;BME280;61877;48.246;9.220;2023-04-08T04:17:50;94304.63;;;5.79;91.47
73600;BME280;61877;48.246;9.220;2023-04-08T04:20:15;94305.72;;;5.78;91.80
73600;BME280;61877;48.246;9.220;2023-04-08T04:22:41;94304.13;;;5.77;92.29
73600;BME280;61877;48.246;9.220;2023-04-08T04:25:07;94311.34;;;5.77;92.35
73600;BME280;61877;48.246;9.220;2023-04-08T04:27:32;94307.41;;;5.74;92.28
73600;BME280;61877;48.246;9.220;2023-04-08T04:29:59;94314.31;;;5.75;92.21
73600;BME280;61877;48.246;9.220;2023-04-08T04:32:24;94314.47;;;5.79;92.29
73600;BME280;61877;48.246;9.220;2023-04-08T04:34:51;94316.38;;;5.78;91.32
73600;BME280;61877;48.246;9.220;2023-04-08T04:37:17;94318.66;;;5.71;92.65
73600;BME280;61877;48.246;9.220;2023-04-08T04:39:42;94318.66;;;5.71;92.14
73600;BME280;61877;48.246;9.220;2023-04-08T04:42:07;94322.72;;;5.69;91.92
73600;BME280;61877;48.246;9.220;2023-04-08T04:44:33;94325.50;;;5.64;91.97
73600;BME280;61877;48.246;9.220;2023-04-08T04:46:58;94319.06;;;5.65;91.13
73600;BME280;61877;48.246;9.220;2023-04-08T04:49:23;94327.25;;;5.68;90.35
73600;BME280;61877;48.246;9.220;2023-04-08T04:51:50;94330.41;;;5.70;90.16
73600;BME280;61877;48.246;9.220;2023-04-08T04:54:16;94326.88;;;5.61;90.42
73600;BME280;61877;48.246;9.220;2023-04-08T04:56:42;94325.31;;;5.60;90.75
73600;BME280;61877;48.246;9.220;2023-04-08T04:59:09;94327.59;;;5.53;90.67
73600;BME280;61877;48.246;9.220;2023-04-08T05:01:37;94328.16;;;5.64;89.74
73600;BME280;61877;48.246;9.220;2023-04-08T05:04:03;94325.59;;;5.59;89.89
73600;BME280;61877;48.246;9.220;2023-04-08T05:06:50;94324.72;;;5.50;90.04
73600;BME280;61877;48.246;9.220;2023-04-08T05:09:55;94325.94;;;5.44;90.18
73600;BME280;61877;48.246;9.220;2023-04-08T05:12:31;94329.16;;;5.41;90.03
73600;BME280;61877;48.246;9.220;2023-04-08T05:15:02;94335.38;;;5.36;90.08
73600;BME280;61877;48.246;9.220;2023-04-08T05:17:33;94329.50;;;5.25;90.36
73600;BME280;61877;48.246;9.220;2023-04-08T05:20:11;94331.00;;;5.18;90.62
73600;BME280;61877;48.246;9.220;2023-04-08T05:22:37;94333.25;;;5.11;90.86
73600;BME280;61877;48.246;9.220;2023-04-08T05:25:05;94330.69;;;5.06;91.58
73600;BME280;61877;48.246;9.220;2023-04-08T05:27:41;94328.53;;;5.08;91.13
73600;BME280;61877;48.246;9.220;2023-04-08T05:30:10;94332.97;;;4.99;91.00
73600;BME280;61877;48.246;9.220;2023-04-08T05:32:46;94336.81;;;4.93;90.99
73600;BME280;61877;48.246;9.220;2023-04-08T05:35:17;94338.50;;;4.89;91.28
73600;BME280;61877;48.246;9.220;2023-04-08T05:37:43;94341.25;;;4.84;91.89
73600;BME280;61877;48.246;9.220;2023-04-08T05:40:17;94341.25;;;4.84;92.30
73600;BME280;61877;48.246;9.220;2023-04-08T05:42:56;94342.81;;;4.85;92.45
73600;BME280;61877;48.246;9.220;2023-04-08T05:47:57;94347.13;;;4.94;92.45
73600;BME280;61877;48.246;9.220;2023-04-08T05:50:26;94349.19;;;5.11;91.61
73600;BME280;61877;48.246;9.220;2023-04-08T05:52:55;94349.69;;;5.13;91.12
73600;BME280;61877;48.246;9.220;2023-04-08T05:55:27;94357.28;;;5.19;90.83
73600;BME280;61877;48.246;9.220;2023-04-08T05:58:10;94359.25;;;5.27;91.14
73600;BME280;61877;48.246;9.220;2023-04-08T06:00:50;94362.88;;;5.32;90.45
73600;BME280;61877;48.246;9.220;2023-04-08T06:03:16;94366.59;;;5.44;90.41
73600;BME280;61877;48.246;9.220;2023-04-08T06:09:12;94371.09;;;5.71;88.87
73600;BME280;61877;48.246;9.220;2023-04-08T06:11:38;94370.22;;;5.75;87.97
73600;BME280;61877;48.246;9.220;2023-04-08T06:14:04;94369.22;;;5.85;87.90
73600;BME280;61877;48.246;9.220;2023-04-08T06:16:29;94372.25;;;5.92;87.68
73600;BME280;61877;48.246;9.220;2023-04-08T06:18:55;94375.09;;;5.95;87.84
73600;BME280;61877;48.246;9.220;2023-04-08T06:21:20;94375.69;;;5.92;87.84
73600;BME280;61877;48.246;9.220;2023-04-08T06:23:46;94374.22;;;6.00;88.52
73600;BME280;61877;48.246;9.220;2023-04-08T06:26:11;94370.13;;;6.02;86.22
73600;BME280;61877;48.246;9.220;2023-04-08T06:28:38;94370.41;;;6.14;87.14
73600;BME280;61877;48.246;9.220;2023-04-08T06:31:04;94365.44;;;6.21;87.73
73600;BME280;61877;48.246;9.220;2023-04-08T06:33:29;94364.22;;;6.27;87.25
73600;BME280;61877;48.246;9.220;2023-04-08T06:36:00;94369.78;;;6.39;86.85
73600;BME280;61877;48.246;9.220;2023-04-08T06:38:26;94369.31;;;6.37;85.22
73600;BME280;61877;48.246;9.220;2023-04-08T06:40:51;94362.41;;;6.36;84.72
73600;BME280;61877;48.246;9.220;2023-04-08T06:43:17;94371.03;;;6.42;85.84
73600;BME280;61877;48.246;9.220;2023-04-08T06:45:43;94365.91;;;6.45;83.01
73600;BME280;61877;48.246;9.220;2023-04-08T06:48:09;94372.38;;;6.53;84.09
73600;BME280;61877;48.246;9.220;2023-04-08T06:50:34;94369.25;;;6.51;84.09
73600;BME280;61877;48.246;9.220;2023-04-08T06:52:59;94372.56;;;6.57;84.89
73600;BME280;61877;48.246;9.220;2023-04-08T06:55:25;94375.38;;;6.60;84.81
73600;BME280;61877;48.246;9.220;2023-04-08T06:57:50;94373.88;;;6.68;82.47
73600;BME280;61877;48.246;9.220;2023-04-08T07:00:16;94375.38;;;6.60;83.48
73600;BME280;61877;48.246;9.220;2023-04-08T07:02:43;94376.84;;;6.66;84.17
73600;BME280;61877;48.246;9.220;2023-04-08T07:05:09;94382.63;;;6.60;84.32
73600;BME280;61877;48.246;9.220;2023-04-08T07:07:34;94385.78;;;6.70;82.10
73600;BME280;61877;48.246;9.220;2023-04-08T07:09:59;94386.09;;;6.69;82.47
73600;BME280;61877;48.246;9.220;2023-04-08T07:12:25;94389.25;;;6.71;83.55
73600;BME280;61877;48.246;9.220;2023-04-08T07:14:50;94385.50;;;6.72;83.03
73600;BME280;61877;48.246;9.220;2023-04-08T07:17:16;94393.22;;;6.82;82.75
73600;BME280;61877;48.246;9.220;2023-04-08T07:19:43;94392.78;;;6.80;81.66
73600;BME280;61877;48.246;9.220;2023-04-08T07:22:08;94385.09;;;6.78;82.17
73600;BME280;61877;48.246;9.220;2023-04-08T07:24:33;94389.72;;;6.95;81.44
73600;BME280;61877;48.246;9.220;2023-04-08T07:26:59;94392.72;;;7.02;81.07
73600;BME280;61877;48.246;9.220;2023-04-08T07:29:24;94388.22;;;7.11;80.75
73600;BME280;61877;48.246;9.220;2023-04-08T07:31:50;94395.00;;;7.25;80.52
73600;BME280;61877;48.246;9.220;2023-04-08T07:34:15;94392.47;;;7.20;78.88
73600;BME280;61877;48.246;9.220;2023-04-08T07:36:42;94390.66;;;7.46;78.93
73600;BME280;61877;48.246;9.220;2023-04-08T07:39:07;94392.75;;;7.58;78.99
73600;BME280;61877;48.246;9.220;2023-04-08T07:41:33;94394.81;;;7.61;78.93
73600;BME280;61877;48.246;9.220;2023-04-08T07:43:58;94408.19;;;7.86;76.94
73600;BME280;61877;48.246;9.220;2023-04-08T07:46:24;94391.41;;;7.95;76.80
73600;BME280;61877;48.246;9.220;2023-04-08T07:48:49;94400.06;;;8.00;78.02
73600;BME280;61877;48.246;9.220;2023-04-08T07:51:15;94398.66;;;8.20;77.32
73600;BME280;61877;48.246;9.220;2023-04-08T07:53:41;94400.09;;;8.34;76.41
73600;BME280;61877;48.246;9.220;2023-04-08T07:56:11;94398.19;;;8.26;76.76
73600;BME280;61877;48.246;9.220;2023-04-08T07:58:36;94405.88;;;8.19;75.00
73600;BME280;61877;48.246;9.220;2023-04-08T08:01:02;94406.38;;;8.30;73.43
73600;BME280;61877;48.246;9.220;2023-04-08T08:03:27;94410.47;;;8.36;73.89
73600;BME280;61877;48.246;9.220;2023-04-08T08:05:53;94412.00;;;8.20;73.33
73600;BME280;61877;48.246;9.220;2023-04-08T08:08:18;94413.09;;;8.10;75.28
73600;BME280;61877;48.246;9.220;2023-04-08T08:10:45;94408.50;;;7.85;73.67
73600;BME280;61877;48.246;9.220;2023-04-08T08:13:13;94417.31;;;7.77;73.89
73600;BME280;61877;48.246;9.220;2023-04-08T08:15:38;94421.84;;;7.76;74.66
73600;BME280;61877;48.246;9.220;2023-04-08T08:18:04;94422.94;;;7.67;76.20
73600;BME280;61877;48.246;9.220;2023-04-08T08:20:29;94425.94;;;7.74;76.56
73600;BME280;61877;48.246;9.220;2023-04-08T08:22:55;94423.91;;;7.71;77.11
73600;BME280;61877;48.246;9.220;2023-04-08T08:25:20;94419.81;;;7.82;76.20
73600;BME280;61877;48.246;9.220;2023-04-08T08:27:47;94431.28;;;7.91;76.38
73600;BME280;61877;48.246;9.220;2023-04-08T08:30:12;94431.94;;;7.88;74.82
73600;BME280;61877;48.246;9.220;2023-04-08T08:32:37;94435.41;;;7.88;74.73
73600;BME280;61877;48.246;9.220;2023-04-08T08:35:04;94431.78;;;8.02;76.11
73600;BME280;61877;48.246;9.220;2023-04-08T08:37:29;94437.94;;;8.02;75.35
73600;BME280;61877;48.246;9.220;2023-04-08T08:39:54;94441.69;;;7.84;75.20
73600;BME280;61877;48.246;9.220;2023-04-08T08:42:20;94451.38;;;7.71;77.78
73600;BME280;61877;48.246;9.220;2023-04-08T08:44:48;94457.38;;;7.85;77.69
73600;BME280;61877;48.246;9.220;2023-04-08T08:47:15;94451.91;;;8.08;76.36
73600;BME280;61877;48.246;9.220;2023-04-08T08:49:41;94450.56;;;8.27;76.22
73600;BME280;61877;48.246;9.220;2023-04-08T08:52:07;94445.06;;;8.49;74.99
73600;BME280;61877;48.246;9.220;2023-04-08T08:54:32;94449.78;;;8.52;74.45
73600;BME280;61877;48.246;9.220;2023-04-08T08:56:57;94449.16;;;8.55;73.61
73600;BME280;61877;48.246;9.220;2023-04-08T08:59:23;94455.75;;;8.49;73.61
73600;BME280;61877;48.246;9.220;2023-04-08T09:01:50;94454.19;;;8.48;75.28
73600;BME280;61877;48.246;9.220;2023-04-08T09:04:16;94456.38;;;8.63;73.31
73600;BME280;61877;48.246;9.220;2023-04-08T09:06:42;94458.75;;;8.65;73.67
73600;BME280;61877;48.246;9.220;2023-04-08T09:09:08;94460.47;;;8.52;75.27
73600;BME280;61877;48.246;9.220;2023-04-08T09:11:34;94453.06;;;8.41;75.68
73600;BME280;61877;48.246;9.220;2023-04-08T09:14:00;94455.13;;;8.61;74.07
73600;BME280;61877;48.246;9.220;2023-04-08T09:16:25;94461.91;;;8.75;74.64
73600;BME280;61877;48.246;9.220;2023-04-08T09:18:52;94465.81;;;8.95;73.78
73600;BME280;61877;48.246;9.220;2023-04-08T09:21:22;94457.31;;;8.84;73.56
73600;BME280;61877;48.246;9.220;2023-04-08T09:23:49;94461.69;;;8.97;73.81
73600;BME280;61877;48.246;9.220;2023-04-08T09:26:15;94468.63;;;8.98;73.82
73600;BME280;61877;48.246;9.220;2023-04-08T09:28:42;94465.66;;;8.83;73.08
73600;BME280;61877;48.246;9.220;2023-04-08T09:31:18;94471.97;;;8.70;72.78
73600;BME280;61877;48.246;9.220;2023-04-08T09:33:43;94474.00;;;8.64;72.84
73600;BME280;61877;48.246;9.220;2023-04-08T09:36:10;94466.59;;;8.87;72.43
73600;BME280;61877;48.246;9.220;2023-04-08T09:38:36;94477.31;;;8.87;71.83
73600;BME280;61877;48.246;9.220;2023-04-08T09:41:05;94470.69;;;8.84;72.60
73600;BME280;61877;48.246;9.220;2023-04-08T09:43:32;94472.13;;;8.82;72.48
73600;BME280;61877;48.246;9.220;2023-04-08T09:46:01;94463.63;;;8.80;73.27
73600;BME280;61877;48.246;9.220;2023-04-08T09:48:31;94463.69;;;9.18;72.11
73600;BME280;61877;48.246;9.220;2023-04-08T09:51:01;94465.47;;;9.13;71.58
73600;BME280;61877;48.246;9.220;2023-04-08T09:53:33;94466.72;;;9.07;70.94
73600;BME280;61877;48.246;9.220;2023-04-08T09:55:59;94469.44;;;8.82;72.07
73600;BME280;61877;48.246;9.220;2023-04-08T09:58:28;94477.47;;;8.73;72.11
73600;BME280;61877;48.246;9.220;2023-04-08T10:00:56;94473.50;;;8.96;72.26
73600;BME280;61877;48.246;9.220;2023-04-08T10:03:26;94469.44;;;8.82;70.61
73600;BME280;61877;48.246;9.220;2023-04-08T10:05:53;94474.09;;;9.19;70.66
73600;BME280;61877;48.246;9.220;2023-04-08T10:08:19;94474.94;;;9.49;70.76
73600;BME280;61877;48.246;9.220;2023-04-08T10:10:46;94471.53;;;9.77;69.23
73600;BME280;61877;48.246;9.220;2023-04-08T10:13:12;94468.84;;;9.77;67.43
73600;BME280;61877;48.246;9.220;2023-04-08T10:15:39;94472.34;;;9.69;69.33
73600;BME280;61877;48.246;9.220;2023-04-08T10:18:29;94465.47;;;9.89;67.48
73600;BME280;61877;48.246;9.220;2023-04-08T10:20:55;94467.31;;;9.68;67.53
73600;BME280;61877;48.246;9.220;2023-04-08T10:23:53;94469.28;;;9.88;67.04
73600;BME280;61877;48.246;9.220;2023-04-08T10:26:37;94464.31;;;9.98;67.58
73600;BME280;61877;48.246;9.220;2023-04-08T10:32:08;94460.22;;;11.36;63.14
73600;BME280;61877;48.246;9.220;2023-04-08T10:34:50;94456.75;;;11.93;61.50
73600;BME280;61877;48.246;9.220;2023-04-08T10:37:16;94457.06;;;11.79;58.55
73600;BME280;61877;48.246;9.220;2023-04-08T10:39:48;94457.28;;;11.17;58.26
73600;BME280;61877;48.246;9.220;2023-04-08T10:42:15;94456.09;;;10.94;60.10
73600;BME280;61877;48.246;9.220;2023-04-08T10:44:43;94459.03;;;10.60;63.46
73600;BME280;61877;48.246;9.220;2023-04-08T10:47:09;94458.66;;;10.50;63.58
73600;BME280;61877;48.246;9.220;2023-04-08T10:49:34;94458.88;;;10.98;61.53
73600;BME280;61877;48.246;9.220;2023-04-08T10:51:59;94448.38;;;10.72;59.65
73600;BME280;61877;48.246;9.220;2023-04-08T10:54:25;94449.13;;;11.95;59.54
73600;BME280;61877;48.246;9.220;2023-04-08T10:56:51;94447.78;;;12.64;56.17
73600;BME280;61877;48.246;9.220;2023-04-08T10:59:26;94442.38;;;13.32;50.40
73600;BME280;61877;48.246;9.220;2023-04-08T11:01:52;94438.44;;;13.14;51.92
73600;BME280;61877;48.246;9.220;2023-04-08T11:04:17;94443.09;;;12.89;52.20
73600;BME280;61877;48.246;9.220;2023-04-08T11:06:44;94449.41;;;12.53;54.60
73600;BME280;61877;48.246;9.220;2023-04-08T11:09:10;94445.69;;;12.58;53.90
73600;BME280;61877;48.246;9.220;2023-04-08T11:11:35;94456.13;;;12.47;54.85
73600;BME280;61877;48.246;9.220;2023-04-08T11:14:01;94452.00;;;12.14;56.23
73600;BME280;61877;48.246;9.220;2023-04-08T11:16:27;94453.59;;;12.03;57.64
73600;BME280;61877;48.246;9.220;2023-04-08T11:18:53;94444.75;;;11.90;56.47
73600;BME280;61877;48.246;9.220;2023-04-08T11:21:18;94446.44;;;11.83;53.39
73600;BME280;61877;48.246;9.220;2023-04-08T11:23:44;94448.56;;;11.65;55.60
73600;BME280;61877;48.246;9.220;2023-04-08T11:26:10;94445.91;;;11.32;56.21
73600;BME280;61877;48.246;9.220;2023-04-08T11:28:35;94447.09;;;10.90;57.42
73600;BME280;61877;48.246;9.220;2023-04-08T11:31:01;94443.22;;;10.67;57.69
73600;BME280;61877;48.246;9.220;2023-04-08T11:33:29;94438.38;;;10.40;55.79
73600;BME280;61877;48.246;9.220;2023-04-08T11:35:55;94445.25;;;10.29;54.10
73600;BME280;61877;48.246;9.220;2023-04-08T11:38:21;94452.72;;;10.15;54.52
73600;BME280;61877;48.246;9.220;2023-04-08T11:40:51;94449.31;;;10.06;56.17
73600;BME280;61877;48.246;9.220;2023-04-08T11:43:17;94447.47;;;9.98;56.52
73600;BME280;61877;48.246;9.220;2023-04-08T11:45:42;94451.66;;;10.07;56.15
73600;BME280;61877;48.246;9.220;2023-04-08T11:48:09;94451.66;;;10.07;55.67
73600;BME280;61877;48.246;9.220;2023-04-08T11:50:36;94454.78;;;10.18;58.64
73600;BME280;61877;48.246;9.220;2023-04-08T11:53:01;94445.75;;;10.43;55.74
73600;BME280;61877;48.246;9.220;2023-04-08T11:55:28;94454.16;;;10.62;55.87
73600;BME280;61877;48.246;9.220;2023-04-08T11:57:55;94445.47;;;10.45;55.72
73600;BME280;61877;48.246;9.220;2023-04-08T12:00:22;94456.81;;;10.41;55.32
73600;BME280;61877;48.246;9.220;2023-04-08T12:02:50;94456.91;;;10.74;55.46
73600;BME280;61877;48.246;9.220;2023-04-08T12:05:16;94447.00;;;10.66;56.10
73600;BME280;61877;48.246;9.220;2023-04-08T12:07:43;94445.16;;;10.58;54.80
73600;BME280;61877;48.246;9.220;2023-04-08T12:10:09;94451.00;;;10.81;54.07
73600;BME280;61877;48.246;9.220;2023-04-08T12:12:34;94450.13;;;10.89;52.92
73600;BME280;61877;48.246;9.220;2023-04-08T12:14:59;94456.44;;;10.72;53.66
73600;BME280;61877;48.246;9.220;2023-04-08T12:17:25;94457.81;;;10.58;54.27
73600;BME280;61877;48.246;9.220;2023-04-08T12:19:50;94456.22;;;10.57;55.96
73600;BME280;61877;48.246;9.220;2023-04-08T12:22:15;94458.78;;;10.53;56.13
73600;BME280;61877;48.246;9.220;2023-04-08T12:24:42;94458.66;;;10.70;53.99
73600;BME280;61877;48.246;9.220;2023-04-08T12:27:08;94464.28;;;10.57;55.27
73600;BME280;61877;48.246;9.220;2023-04-08T12:29:33;94457.34;;;10.35;55.84
73600;BME280;61877;48.246;9.220;2023-04-08T12:31:58;94459.53;;;10.12;57.60
73600;BME280;61877;48.246;9.220;2023-04-08T12:34:24;94452.13;;;9.80;55.90
73600;BME280;61877;48.246;9.220;2023-04-08T12:36:49;94451.94;;;9.56;57.56
73600;BME280;61877;48.246;9.220;2023-04-08T12:39:15;94452.84;;;9.60;56.63
73600;BME280;61877;48.246;9.220;2023-04-08T12:41:41;94451.00;;;9.44;57.80
73600;BME280;61877;48.246;9.220;2023-04-08T12:44:07;94451.47;;;9.46;60.69
73600;BME280;61877;48.246;9.220;2023-04-08T12:46:32;94455.66;;;9.64;60.18
73600;BME280;61877;48.246;9.220;2023-04-08T12:48:58;94446.25;;;9.87;58.22
73600;BME280;61877;48.246;9.220;2023-04-08T12:51:23;94448.03;;;10.12;56.82
73600;BME280;61877;48.246;9.220;2023-04-08T12:53:51;94452.03;;;9.97;57.30
73600;BME280;61877;48.246;9.220;2023-04-08T12:56:16;94451.91;;;10.43;57.48
73600;BME280;61877;48.246;9.220;2023-04-08T12:58:43;94448.34;;;10.39;56.71
73600;BME280;61877;48.246;9.220;2023-04-08T13:01:09;94444.94;;;10.51;56.18
73600;BME280;61877;48.246;9.220;2023-04-08T13:03:34;94450.00;;;10.23;57.65
73600;BME280;61877;48.246;9.220;2023-04-08T13:05:59;94454.84;;;10.30;57.86
73600;BME280;61877;48.246;9.220;2023-04-08T13:08:25;94449.53;;;10.21;57.97
73600;BME280;61877;48.246;9.220;2023-04-08T13:10:50;94451.84;;;10.52;57.66
73600;BME280;61877;48.246;9.220;2023-04-08T13:13:16;94446.88;;;10.63;56.37
73600;BME280;61877;48.246;9.220;2023-04-08T13:15:42;94438.84;;;10.95;55.16
73600;BME280;61877;48.246;9.220;2023-04-08T13:18:08;94441.28;;;10.88;55.93